Time;durP1;ratioP1;P1;durP2;ratioP2;P2;SDS_P1;SDS_P2;PMS_P1;PMS_P2;Temp;Humidity;BMP_temperature;BMP_pressure;BME280_temperature;BME280_humidity;BME280_pressure;Samples;Min_cycle;Max_cycle;Signal;HPM_P1;HPM_P2
2021/07/17 07:00:19;;;;;;;32.67;20.95;;;;;;;18.02;94.71;99333.84;6015456;23;20127;-75
2021/07/17 07:02:44;;;;;;;42.70;22.70;;;;;;;18.13;94.44;99336.91;4956095;28;20044;-74
2021/07/17 07:05:11;;;;;;;34.40;21.70;;;;;;;18.09;93.83;99335.31;4956124;28;20026;-76
2021/07/17 07:07:37;;;;;;;28.50;20.20;;;;;;;17.97;94.43;99341.03;4956001;28;20439;-75
2021/07/17 07:10:07;;;;;;;33.50;20.65;;;;;;;17.82;94.55;99331.13;4956077;28;20023;-75
2021/07/17 07:12:35;;;;;;;34.03;21.33;;;;;;;17.93;94.94;99328.94;4955806;28;20038;-75
2021/07/17 07:15:01;;;;;;;33.80;22.00;;;;;;;17.87;95.04;99330.03;4970437;23;20416;-72
2021/07/17 07:17:26;;;;;;;35.92;20.13;;;;;;;17.99;93.56;99331.34;4952739;29;20047;-72
2021/07/17 07:19:51;;;;;;;31.33;20.88;;;;;;;18.00;93.26;99338.31;4954502;28;20023;-72
2021/07/17 07:22:17;;;;;;;33.95;20.95;;;;;;;17.97;93.95;99343.66;4954056;28;20046;-72
2021/07/17 07:24:42;;;;;;;37.47;20.63;;;;;;;17.98;94.92;99347.97;4953937;28;20051;-72
2021/07/17 07:27:08;;;;;;;34.90;19.52;;;;;;;17.87;93.17;99350.16;4953969;28;20031;-72
2021/07/17 07:29:33;;;;;;;33.03;20.73;;;;;;;17.93;94.83;99353.41;4954942;28;20039;-72
2021/07/17 07:31:59;;;;;;;33.10;20.40;;;;;;;17.91;93.85;99357.00;4955649;29;20027;-72
2021/07/17 07:34:24;;;;;;;37.22;19.48;;;;;;;18.01;94.00;99352.25;4955469;28;20492;-72
2021/07/17 07:36:50;;;;;;;34.53;18.65;;;;;;;18.03;92.85;99355.66;4955459;28;20492;-72
2021/07/17 07:39:19;;;;;;;35.58;20.27;;;;;;;17.95;93.68;99353.34;4955512;28;20440;-73
2021/07/17 07:41:44;;;;;;;34.88;19.05;;;;;;;18.12;93.89;99361.41;4955537;28;20031;-72
2021/07/17 07:44:11;;;;;;;29.08;18.13;;;;;;;18.05;93.40;99359.09;4955367;28;20034;-72
2021/07/17 07:46:37;;;;;;;30.08;19.25;;;;;;;18.09;93.03;99368.56;4955282;28;20047;-72
2021/07/17 07:49:04;;;;;;;32.17;18.48;;;;;;;18.15;92.89;99370.94;4955352;28;20077;-72
2021/07/17 07:51:30;;;;;;;28.70;18.20;;;;;;;18.18;92.74;99376.91;4955263;28;20260;-72
2021/07/17 07:53:55;;;;;;;37.42;18.90;;;;;;;18.15;93.58;99377.03;4955047;28;20023;-72
2021/07/17 07:56:21;;;;;;;33.05;19.73;;;;;;;18.12;93.43;99371.91;4953639;28;20503;-72
2021/07/17 07:58:46;;;;;;;32.72;20.10;;;;;;;18.33;92.90;99374.59;4955065;28;20396;-72
2021/07/17 08:01:11;;;;;;;28.55;17.67;;;;;;;18.77;90.95;99366.72;4954848;29;20059;-72
2021/07/17 08:03:37;;;;;;;27.67;18.15;;;;;;;19.19;88.50;99354.34;4953218;28;20031;-72
2021/07/17 08:06:02;;;;;;;29.75;19.02;;;;;;;19.34;86.86;99359.84;4953027;28;20070;-72
2021/07/17 08:08:28;;;;;;;35.75;17.38;;;;;;;19.55;86.71;99356.25;4952859;29;20041;-72
2021/07/17 08:10:53;;;;;;;31.10;17.33;;;;;;;19.49;84.24;99353.94;4952896;28;20055;-72
2021/07/17 08:13:18;;;;;;;28.20;17.50;;;;;;;19.44;85.89;99355.91;4952921;28;20038;-72
2021/07/17 08:15:44;;;;;;;32.50;17.60;;;;;;;19.41;86.75;99356.03;4952696;28;20035;-71
2021/07/17 08:18:09;;;;;;;32.00;19.05;;;;;;;19.64;85.27;99355.88;4954130;29;20109;-72
2021/07/17 08:20:35;;;;;;;25.48;16.20;;;;;;;19.77;84.93;99354.41;4954561;28;20074;-72
2021/07/17 08:23:01;;;;;;;27.08;17.60;;;;;;;19.88;83.91;99355.69;4954510;28;20097;-72
2021/07/17 08:25:26;;;;;;;43.33;17.45;;;;;;;20.20;81.31;99347.09;4954284;28;20097;-72
2021/07/17 08:27:51;;;;;;;31.02;16.95;;;;;;;20.73;80.09;99351.53;4954409;28;20090;-72
2021/07/17 08:30:18;;;;;;;30.40;14.95;;;;;;;21.27;76.28;99352.28;4954343;28;20106;-72
2021/07/17 08:32:43;;;;;;;30.98;16.08;;;;;;;21.05;76.70;99351.69;4954368;28;20031;-73
2021/07/17 08:35:09;;;;;;;20.85;15.02;;;;;;;20.76;76.97;99354.00;4954205;28;20031;-74
2021/07/17 08:37:34;;;;;;;26.20;15.63;;;;;;;20.66;78.34;99360.69;4954145;28;20031;-72
2021/07/17 08:40:03;;;;;;;25.55;15.05;;;;;;;20.65;77.55;99358.13;4954374;28;20031;-73
2021/07/17 08:42:31;;;;;;;35.40;15.57;;;;;;;20.75;77.33;99354.09;4954174;29;20110;-73
2021/07/17 08:45:00;;;;;;;30.50;15.15;;;;;;;20.78;77.75;99354.78;4953697;28;20027;-72
2021/07/17 08:47:29;;;;;;;30.08;14.20;;;;;;;20.38;79.58;99350.63;4954099;28;20054;-72
2021/07/17 08:49:57;;;;;;;30.65;16.52;;;;;;;20.06;80.85;99349.53;4954189;28;20027;-72
2021/07/17 08:52:23;;;;;;;27.58;16.25;;;;;;;19.72;82.91;99348.47;4954071;28;20109;-72
2021/07/17 08:54:49;;;;;;;31.27;18.08;;;;;;;19.84;82.60;99338.34;4953944;28;20034;-72
2021/07/17 08:57:14;;;;;;;33.13;17.90;;;;;;;19.81;83.01;99343.72;4953864;28;20031;-72
2021/07/17 08:59:40;;;;;;;29.70;18.63;;;;;;;19.61;83.00;99342.88;4953913;29;20026;-72
2021/07/17 09:02:07;;;;;;;34.05;17.25;;;;;;;19.47;83.78;99345.22;4953879;28;20023;-72
2021/07/17 09:04:32;;;;;;;32.35;18.02;;;;;;;19.48;84.56;99341.69;4947102;28;20031;-72
2021/07/17 09:06:58;;;;;;;30.13;17.30;;;;;;;19.40;85.29;99351.69;4944754;28;20038;-72
2021/07/17 09:09:31;;;;;;;24.70;15.48;;;;;;;19.42;86.16;99344.59;4943442;29;21368;-72
2021/07/17 09:11:58;;;;;;;30.17;18.30;;;;;;;18.73;87.76;99348.44;4945007;28;20027;-72
2021/07/17 09:14:44;;;;;;;29.65;16.48;;;;;;;18.89;88.98;99343.41;4945236;29;20480;-72
2021/07/17 09:17:09;;;;;;;27.70;17.65;;;;;;;19.12;86.25;99339.78;4944739;28;20035;-72
2021/07/17 09:19:37;;;;;;;27.08;16.50;;;;;;;18.95;86.77;99343.16;4944802;28;20503;-72
2021/07/17 09:22:03;;;;;;;27.20;16.95;;;;;;;18.95;86.98;99344.91;4945899;28;21039;-72
2021/07/17 09:24:28;;;;;;;24.48;18.20;;;;;;;18.75;89.83;99346.59;4946109;29;20035;-72
2021/07/17 09:26:58;;;;;;;31.60;18.85;;;;;;;18.76;91.08;99352.72;4945532;28;20030;-73
2021/07/17 09:29:35;;;;;;;30.90;18.02;;;;;;;18.94;89.83;99351.06;4943497;29;20031;-72
2021/07/17 09:32:00;;;;;;;24.60;16.67;;;;;;;19.16;86.90;99346.63;4944554;28;20519;-72
2021/07/17 09:34:29;;;;;;;25.50;15.32;;;;;;;19.06;88.56;99349.72;4945485;29;20023;-72
2021/07/17 09:37:03;;;;;;;26.00;16.40;;;;;;;19.23;87.87;99342.78;4944843;28;20448;-72
2021/07/17 09:39:31;;;;;;;32.95;16.35;;;;;;;19.26;87.29;99331.28;4945827;29;20085;-72
2021/07/17 09:42:04;;;;;;;25.95;16.08;;;;;;;19.15;88.80;99334.41;4945748;29;20028;-72
2021/07/17 09:44:31;;;;;;;23.65;16.15;;;;;;;19.12;89.07;99334.53;4944882;29;20039;-72
2021/07/17 09:46:57;;;;;;;27.27;15.02;;;;;;;19.40;85.77;99333.31;4944669;28;20039;-72
2021/07/17 09:49:24;;;;;;;25.08;16.00;;;;;;;19.34;85.23;99333.56;4943647;28;20023;-73
2021/07/17 09:52:15;;;;;;;24.90;15.90;;;;;;;19.44;84.89;99329.63;4944813;29;20493;-72
2021/07/17 09:55:04;;;;;;;23.27;15.25;;;;;;;19.52;85.49;99327.47;4942015;29;20477;-78
2021/07/17 09:57:32;;;;;;;26.73;15.27;;;;;;;19.95;83.61;99321.09;4960987;28;20508;-76
2021/07/17 10:00:06;;;;;;;23.65;15.07;;;;;;;20.19;82.66;99318.22;4948704;29;20035;-75
2021/07/17 10:02:31;;;;;;;26.25;15.25;;;;;;;20.23;81.12;99322.41;4948725;29;20067;-76
2021/07/17 10:04:56;;;;;;;25.08;14.75;;;;;;;20.51;80.42;99319.31;4948384;28;20115;-76
2021/07/17 10:07:22;;;;;;;24.38;14.60;;;;;;;20.88;79.87;99309.53;4948610;28;20047;-75
2021/07/17 10:09:50;;;;;;;25.38;14.07;;;;;;;20.97;78.28;99307.28;4948539;28;20389;-76
2021/07/17 10:12:16;;;;;;;25.17;14.30;;;;;;;20.86;78.41;99300.88;4948665;28;20038;-77
2021/07/17 10:14:42;;;;;;;30.30;14.75;;;;;;;20.67;79.73;99301.81;4945931;28;20035;-76
2021/07/17 10:17:14;;;;;;;26.17;14.93;;;;;;;21.03;78.71;99300.81;4948225;28;20445;-76
2021/07/17 10:19:41;;;;;;;22.83;12.90;;;;;;;21.45;76.88;99294.25;4947910;28;20028;-75
2021/07/17 10:22:07;;;;;;;19.90;13.20;;;;;;;21.57;75.98;99285.69;4947311;29;20381;-70
2021/07/17 10:24:33;;;;;;;33.08;14.30;;;;;;;21.72;74.63;99284.81;4945816;29;20031;-70
2021/07/17 10:26:59;;;;;;;20.02;12.55;;;;;;;22.73;72.34;99284.31;4947437;28;20519;-70
2021/07/17 10:29:26;;;;;;;20.38;12.73;;;;;;;23.42;67.79;99281.91;4945149;29;20055;-70
2021/07/17 10:31:52;;;;;;;32.13;12.80;;;;;;;24.41;65.71;99283.44;4946125;29;20034;-70
2021/07/17 10:34:19;;;;;;;17.92;10.95;;;;;;;24.42;63.68;99289.59;4944899;28;20737;-70
2021/07/17 10:36:56;;;;;;;24.45;11.93;;;;;;;24.26;63.55;99290.59;4945416;28;20491;-70
2021/07/17 10:39:25;;;;;;;19.33;11.98;;;;;;;23.03;69.93;99291.34;4945153;29;20041;-70
2021/07/17 10:41:51;;;;;;;19.92;10.20;;;;;;;23.88;66.28;99289.59;4945899;29;20028;-70
2021/07/17 10:44:37;;;;;;;25.25;11.77;;;;;;;23.57;66.50;99291.53;4959163;28;20030;-70
2021/07/17 10:47:07;;;;;;;19.55;11.13;;;;;;;22.64;69.20;99295.41;4943670;28;20035;-70
2021/07/17 10:49:39;;;;;;;22.35;11.88;;;;;;;22.63;70.66;99292.84;4945285;29;20042;-70
2021/07/17 10:52:05;;;;;;;28.20;12.15;;;;;;;22.28;71.75;99293.97;4947784;29;20050;-70
2021/07/17 10:54:31;;;;;;;24.50;11.50;;;;;;;22.88;69.94;99297.53;4946715;29;20571;-71
2021/07/17 10:56:56;;;;;;;24.50;11.80;;;;;;;23.01;69.93;99282.66;4941955;29;20111;-71
2021/07/17 10:59:22;;;;;;;18.58;11.10;;;;;;;23.42;67.11;99292.50;4943544;29;20369;-71
2021/07/17 11:01:56;;;;;;;22.53;11.73;;;;;;;22.96;69.78;99292.66;4945485;29;20020;-71
2021/07/17 11:04:46;;;;;;;20.65;11.05;;;;;;;23.52;66.49;99285.69;4942514;29;20287;-71
2021/07/17 11:07:18;;;;;;;18.13;11.10;;;;;;;23.12;69.43;99284.66;4946647;28;20089;-71
2021/07/17 11:09:50;;;;;;;20.45;10.80;;;;;;;23.65;67.05;99273.41;4945101;28;20039;-71
2021/07/17 11:12:20;;;;;;;21.10;11.90;;;;;;;23.82;66.51;99270.50;4946917;28;20034;-71
2021/07/17 11:14:46;;;;;;;22.88;12.20;;;;;;;22.62;70.69;99281.44;4943961;29;20031;-71
2021/07/17 11:17:12;;;;;;;21.08;12.10;;;;;;;22.83;69.30;99277.53;4943996;28;20040;-71
2021/07/17 11:19:37;;;;;;;19.92;11.10;;;;;;;23.26;68.92;99277.59;4943793;28;20028;-71
2021/07/17 11:22:13;;;;;;;19.70;11.98;;;;;;;22.96;68.21;99284.72;4943159;29;20082;-71
2021/07/17 11:24:39;;;;;;;24.13;12.70;;;;;;;22.54;70.74;99286.34;4943871;29;20050;-71
2021/07/17 11:27:17;;;;;;;25.45;11.88;;;;;;;21.86;72.67;99285.84;4946044;28;20078;-71
2021/07/17 11:29:45;;;;;;;17.98;12.48;;;;;;;21.54;74.51;99299.00;4946463;29;20444;-72
2021/07/17 11:32:16;;;;;;;20.17;12.90;;;;;;;21.47;75.18;99292.38;4946345;28;20475;-71
2021/07/17 11:34:42;;;;;;;21.90;12.07;;;;;;;21.08;77.23;99293.56;4946765;28;20161;-71
2021/07/17 11:37:10;;;;;;;24.58;13.10;;;;;;;21.34;76.65;99291.34;4946267;28;20031;-71
2021/07/17 11:39:39;;;;;;;33.70;13.90;;;;;;;21.13;78.02;99296.78;4946767;28;20034;-71
2021/07/17 11:42:07;;;;;;;28.77;13.48;;;;;;;21.01;78.09;99298.28;4941737;29;20512;-71
2021/07/17 11:44:37;;;;;;;21.23;13.25;;;;;;;21.07;79.03;99291.81;4941988;29;20039;-71
2021/07/17 11:47:06;;;;;;;19.75;12.98;;;;;;;21.44;77.78;99288.13;4941660;28;20026;-71
2021/07/17 11:49:36;;;;;;;19.98;13.00;;;;;;;21.57;76.83;99288.31;4946819;29;20031;-71
2021/07/17 11:52:05;;;;;;;21.27;13.10;;;;;;;21.50;76.60;99289.56;4944634;29;20114;-71
2021/07/17 11:54:36;;;;;;;31.05;14.20;;;;;;;21.52;77.57;99293.84;4944838;29;20039;-71
2021/07/17 11:57:08;;;;;;;19.98;13.35;;;;;;;21.57;76.21;99287.47;4944143;28;20373;-73
2021/07/17 11:59:35;;;;;;;18.90;13.25;;;;;;;21.70;75.74;99281.41;4944857;29;20031;-72
2021/07/17 12:02:08;;;;;;;37.08;21.02;;;;;;;21.92;75.21;99277.56;4944311;28;20030;-72
2021/07/17 12:04:39;;;;;;;34.75;19.65;;;;;;;21.91;73.66;99281.16;4945748;28;20491;-72
2021/07/17 12:07:11;;;;;;;19.67;12.70;;;;;;;22.26;72.50;99280.03;4946147;29;20102;-72
2021/07/17 12:09:43;;;;;;;23.83;13.48;;;;;;;22.55;72.71;99269.53;4946191;28;20079;-72
2021/07/17 12:12:12;;;;;;;16.92;11.18;;;;;;;22.67;71.07;99273.25;4942319;29;20031;-71
2021/07/17 12:14:38;;;;;;;18.15;11.38;;;;;;;22.52;71.00;99269.72;4942155;29;20062;-75
2021/07/17 12:17:03;;;;;;;19.80;11.23;;;;;;;22.29;71.41;99269.28;4944164;28;20125;-76
2021/07/17 12:19:29;;;;;;;25.00;15.98;;;;;;;22.16;73.09;99257.72;4939691;29;20027;-74
2021/07/17 12:21:57;;;;;;;21.90;11.93;;;;;;;22.28;73.19;99262.28;4940125;28;20046;-74
2021/07/17 12:24:23;;;;;;;17.25;11.27;;;;;;;22.05;73.64;99265.41;4946014;29;20034;-74
2021/07/17 12:26:49;;;;;;;21.30;12.55;;;;;;;21.61;75.53;99255.53;4940367;28;20035;-74
2021/07/17 12:29:14;;;;;;;22.02;12.32;;;;;;;21.77;75.47;99251.13;4939954;29;20033;-74
2021/07/17 12:31:56;;;;;;;22.90;13.50;;;;;;;22.06;73.79;99253.91;4939938;29;20027;-74
2021/07/17 12:34:22;;;;;;;19.45;11.40;;;;;;;22.25;73.73;99256.34;4945969;29;20030;-74
2021/07/17 12:36:47;;;;;;;25.48;11.98;;;;;;;22.34;74.26;99255.81;4945663;28;20069;-74
2021/07/17 12:39:20;;;;;;;21.75;12.23;;;;;;;22.84;70.50;99249.31;4945918;29;20055;-74
2021/07/17 12:41:45;;;;;;;19.27;10.70;;;;;;;22.80;69.96;99253.06;4939897;29;20035;-74
2021/07/17 12:44:11;;;;;;;20.15;11.45;;;;;;;22.45;71.95;99250.75;4945716;29;20082;-74
2021/07/17 12:46:40;;;;;;;23.65;11.23;;;;;;;22.50;72.21;99248.69;4941301;28;20023;-74
2021/07/17 12:49:05;;;;;;;;;;;;;;;23.01;70.01;99248.28;4946300;29;20030;-74
2021/07/17 12:51:34;;;;;;;23.63;11.27;;;;;;;22.94;69.59;99250.47;4945728;28;19925;-74
2021/07/17 12:54:04;;;;;;;20.90;10.85;;;;;;;23.06;70.90;99254.16;4945945;28;20030;-74
2021/07/17 12:56:42;;;;;;;22.85;10.88;;;;;;;22.62;71.31;99251.53;4943877;28;20461;-74
2021/07/17 12:59:10;;;;;;;13.15;9.93;;;;;;;22.79;72.95;99241.66;4945761;29;20416;-74
2021/07/17 13:01:37;;;;;;;16.50;10.20;;;;;;;22.90;69.98;99240.19;4939775;29;21249;-74
2021/07/17 13:04:03;;;;;;;20.70;10.55;;;;;;;23.14;70.41;99241.31;4945448;29;20197;-74
2021/07/17 13:06:28;;;;;;;17.25;10.38;;;;;;;22.92;70.37;99240.94;4945520;28;21448;-74
2021/07/17 13:09:01;;;;;;;15.23;10.55;;;;;;;22.66;71.20;99245.97;4939571;28;20031;-74
2021/07/17 13:11:27;;;;;;;17.75;10.60;;;;;;;22.52;71.61;99243.31;4939563;29;20027;-74
2021/07/17 13:13:56;;;;;;;19.13;11.05;;;;;;;22.16;72.75;99241.91;4945470;29;20042;-74
2021/07/17 13:16:33;;;;;;;17.35;10.35;;;;;;;22.34;71.98;99229.41;4942706;29;20027;-71
2021/07/17 13:19:00;;;;;;;16.58;11.43;;;;;;;22.41;72.39;99236.03;4942451;28;20043;-71
2021/07/17 13:21:37;;;;;;;15.20;10.98;;;;;;;22.61;72.27;99232.19;4941681;29;20027;-71
2021/07/17 13:24:03;;;;;;;21.25;11.25;;;;;;;22.55;71.66;99222.00;4944120;29;20114;-71
2021/07/17 13:26:32;;;;;;;18.80;10.88;;;;;;;22.91;70.24;99218.09;4943768;28;20024;-71
2021/07/17 13:28:59;;;;;;;20.60;10.25;;;;;;;23.55;67.71;99220.19;4941321;29;20063;-71
2021/07/17 13:31:34;;;;;;;22.13;10.82;;;;;;;23.40;68.07;99215.88;4942835;29;20031;-73
2021/07/17 13:34:12;;;;;;;14.18;9.80;;;;;;;23.66;67.44;99222.19;4947916;29;20627;-73
2021/07/17 13:36:58;;;;;;;14.82;8.98;;;;;;;23.16;68.95;99233.28;4946963;28;20038;-73
2021/07/17 13:39:25;;;;;;;17.40;10.52;;;;;;;22.95;69.95;99232.81;4947064;29;20400;-73
2021/07/17 13:42:09;;;;;;;20.35;11.40;;;;;;;22.73;71.92;99226.19;4945229;29;20031;-73
2021/07/17 13:44:35;;;;;;;14.30;9.77;;;;;;;22.52;71.94;99227.47;4946506;28;20032;-73
2021/07/17 13:47:16;;;;;;;15.30;10.68;;;;;;;22.54;72.42;99230.88;4947406;28;20042;-73
2021/07/17 13:49:44;;;;;;;16.80;10.50;;;;;;;22.90;71.72;99224.31;4946937;29;20033;-73
2021/07/17 13:52:36;;;;;;;15.18;10.40;;;;;;;22.86;71.42;99222.78;4946943;28;20027;-73
2021/07/17 13:55:06;;;;;;;19.52;10.10;;;;;;;22.99;71.59;99215.84;4943080;28;20511;-74
2021/07/17 13:57:43;;;;;;;16.65;10.25;;;;;;;22.95;70.38;99222.25;4945461;29;20146;-73
2021/07/17 14:00:11;;;;;;;17.85;9.43;;;;;;;23.18;69.24;99208.44;4945428;29;20035;-73
2021/07/17 14:02:36;;;;;;;16.40;8.68;;;;;;;23.24;69.44;99208.06;4945532;28;20153;-71
2021/07/17 14:05:06;;;;;;;18.55;10.02;;;;;;;22.65;71.35;99202.00;4947514;28;20113;-72
2021/07/17 14:07:32;;;;;;;17.88;10.05;;;;;;;22.80;71.46;99209.00;4945604;29;20024;-72
2021/07/17 14:09:57;;;;;;;14.98;10.25;;;;;;;;;;4944939;28;20027;-73
2021/07/17 14:12:26;;;;;;;15.93;10.40;;;;;;;22.14;72.63;99211.22;4946733;29;20510;-71
2021/07/17 14:14:52;;;;;;;17.92;11.10;;;;;;;22.11;73.24;99212.28;4946287;28;20117;-72
2021/07/17 14:17:18;;;;;;;18.73;10.50;;;;;;;22.07;74.72;99208.09;4946411;29;20039;-71
2021/07/17 14:19:45;;;;;;;14.30;9.95;;;;;;;22.29;72.86;99211.22;4946119;28;20146;-71
2021/07/17 14:22:11;;;;;;;14.80;10.25;;;;;;;21.83;74.82;99212.13;4947387;28;20042;-71
2021/07/17 14:24:37;;;;;;;15.50;10.63;;;;;;;22.06;74.18;99195.84;4946197;29;20027;-73
2021/07/17 14:27:02;;;;;;;13.73;9.57;;;;;;;22.39;73.62;99194.81;4945913;28;20050;-71
2021/07/17 14:29:27;;;;;;;18.00;9.80;;;;;;;22.28;72.63;99198.91;4943791;28;20403;-73
2021/07/17 14:31:53;;;;;;;15.73;10.80;;;;;;;22.18;74.91;99202.19;4947589;28;20031;-74
2021/07/17 14:34:18;;;;;;;15.27;10.20;;;;;;;22.22;73.28;99199.28;4946866;29;20153;-71
2021/07/17 14:36:43;;;;;;;25.67;9.43;;;;;;;22.12;74.69;99197.28;4946431;28;20038;-73
2021/07/17 14:39:08;;;;;;;14.23;9.48;;;;;;;22.62;73.11;99183.69;4945188;29;20079;-71
2021/07/17 14:41:34;;;;;;;14.63;9.48;;;;;;;22.51;72.44;99183.50;4945502;28;20031;-71
2021/07/17 14:43:59;;;;;;;17.50;9.00;;;;;;;22.56;71.72;99181.44;4945201;28;20101;-71
2021/07/17 14:46:24;;;;;;;25.63;17.27;;;;;;;22.82;70.54;99183.34;4946989;29;20031;-71
2021/07/17 14:48:50;;;;;;;12.73;9.65;;;;;;;23.07;70.81;99180.06;4946458;28;20062;-73
2021/07/17 14:51:15;;;;;;;14.77;8.98;;;;;;;22.76;71.43;99178.41;4946407;29;20728;-72
2021/07/17 14:53:40;;;;;;;18.27;10.20;;;;;;;22.48;73.22;99178.41;4946496;29;20027;-72
2021/07/17 14:56:08;;;;;;;13.23;9.13;;;;;;;22.39;75.92;99186.91;4953453;28;21503;-73
2021/07/17 14:58:33;;;;;;;28.95;18.55;;;;;;;22.32;75.23;99184.59;4945021;29;20094;-72
2021/07/17 15:00:59;;;;;;;17.10;11.52;;;;;;;21.96;78.27;99192.03;4944345;29;20083;-72
2021/07/17 15:03:24;;;;;;;17.10;10.55;;;;;;;21.97;76.82;99191.94;4944859;29;20034;-73
2021/07/17 15:05:49;;;;;;;17.85;10.65;;;;;;;22.05;76.75;99183.59;4944290;29;20106;-74
2021/07/17 15:08:14;;;;;;;15.32;10.10;;;;;;;21.94;76.64;99183.34;4941305;28;20493;-73
2021/07/17 15:10:40;;;;;;;16.02;10.70;;;;;;;21.97;77.85;99183.16;4941561;29;20023;-73
2021/07/17 15:13:05;;;;;;;14.55;10.73;;;;;;;21.99;77.57;99176.00;4941465;28;20035;-74
2021/07/17 15:15:31;;;;;;;12.32;9.43;;;;;;;22.31;77.18;99182.06;4942604;28;20024;-74
2021/07/17 15:17:56;;;;;;;14.30;10.07;;;;;;;22.54;75.20;99178.06;4947252;28;20047;-74
2021/07/17 15:20:22;;;;;;;26.25;18.15;;;;;;;22.58;75.43;99179.56;4947346;28;20027;-73
2021/07/17 15:22:48;;;;;;;14.18;10.85;;;;;;;22.74;74.77;99172.38;4947381;29;20042;-71
2021/07/17 15:25:15;;;;;;;14.40;9.50;;;;;;;22.90;73.94;99164.38;4943302;28;20030;-70
2021/07/17 15:27:40;;;;;;;14.13;10.35;;;;;;;23.04;73.65;99167.00;4944104;29;20037;-79
2021/07/17 15:30:06;;;;;;;16.25;11.30;;;;;;;23.25;72.90;99159.50;4946604;28;20036;-73
2021/07/17 15:32:32;;;;;;;16.05;10.05;;;;;;;23.43;71.57;99170.72;4943144;29;20114;-73
2021/07/17 15:34:57;;;;;;;15.73;11.15;;;;;;;23.83;70.61;99161.03;4940693;28;20033;-73
2021/07/17 15:37:22;;;;;;;14.23;8.90;;;;;;;24.01;70.20;99163.44;4941111;28;20043;-74
2021/07/17 15:39:49;;;;;;;15.20;10.10;;;;;;;24.43;69.55;99158.84;4946826;29;20659;-74
2021/07/17 15:42:15;;;;;;;28.00;18.67;;;;;;;24.42;68.79;99157.13;4945150;28;20090;-71
2021/07/17 15:44:40;;;;;;;12.55;9.77;;;;;;;24.01;68.39;99148.38;4941558;28;20039;-71
2021/07/17 15:47:06;;;;;;;14.52;9.60;;;;;;;23.72;69.77;99150.31;4942627;28;20761;-71
2021/07/17 15:49:31;;;;;;;16.45;9.15;;;;;;;23.37;72.95;99157.03;4942616;28;20032;-71
2021/07/17 15:51:56;;;;;;;18.42;9.75;;;;;;;23.90;70.13;99150.06;4942391;29;20062;-73
2021/07/17 15:54:22;;;;;;;13.50;9.52;;;;;;;23.94;69.32;99143.63;4945827;28;20027;-73
2021/07/17 15:56:48;;;;;;;18.13;9.98;;;;;;;23.96;68.54;99139.91;4944559;28;20023;-73
2021/07/17 15:59:13;;;;;;;13.13;9.23;;;;;;;23.95;68.66;99142.66;4945166;28;20037;-73
2021/07/17 16:01:39;;;;;;;25.25;17.65;;;;;;;24.46;67.02;99138.28;4940614;29;20404;-73
2021/07/17 16:04:04;;;;;;;14.90;8.80;;;;;;;24.60;67.37;99137.31;4940214;28;20023;-73
2021/07/17 16:06:29;;;;;;;15.43;8.40;;;;;;;24.63;66.91;99138.94;4944223;28;20027;-73
2021/07/17 16:08:55;;;;;;;12.63;8.60;;;;;;;24.47;66.85;99136.50;4946432;28;20037;-73
2021/07/17 16:11:20;;;;;;;17.35;9.00;;;;;;;24.30;66.71;99132.31;4946144;28;20042;-73
2021/07/17 16:13:46;;;;;;;13.60;9.15;;;;;;;23.91;69.37;99143.81;4946222;28;20130;-73
2021/07/17 16:16:12;;;;;;;14.63;9.07;;;;;;;23.68;69.96;99140.88;4942518;28;20027;-73
2021/07/17 16:18:38;;;;;;;19.95;10.52;;;;;;;23.68;70.66;99140.88;4946039;29;20043;-73
2021/07/17 16:21:03;;;;;;;19.77;13.10;;;;;;;23.94;71.54;99140.97;4940116;29;20027;-73
2021/07/17 16:23:28;;;;;;;18.50;11.45;;;;;;;23.82;71.54;99132.88;4940158;29;20071;-73
2021/07/17 16:25:54;;;;;;;14.40;9.35;;;;;;;23.97;69.68;99132.81;4941528;29;20023;-73
2021/07/17 16:28:19;;;;;;;10.10;8.60;;;;;;;23.96;70.16;99133.78;4945843;29;20110;-73
2021/07/17 16:30:46;;;;;;;14.38;9.82;;;;;;;23.97;69.89;99135.47;4946028;28;20031;-72
2021/07/17 16:33:11;;;;;;;12.23;9.40;;;;;;;23.70;69.58;99132.88;4939858;29;20031;-72
2021/07/17 16:35:37;;;;;;;12.48;8.45;;;;;;;23.45;71.09;99133.56;4944116;28;20031;-73
2021/07/17 16:38:03;;;;;;;13.73;9.23;;;;;;;23.16;72.97;99132.81;4939763;29;20074;-73
2021/07/17 16:40:28;;;;;;;17.20;9.00;;;;;;;23.44;72.32;99131.88;4945748;29;20023;-72
2021/07/17 16:42:53;;;;;;;12.05;9.32;;;;;;;23.61;70.44;99129.00;4939762;28;20058;-74
2021/07/17 16:45:20;;;;;;;18.35;10.00;;;;;;;23.66;71.37;99129.56;4944654;28;20063;-74
2021/07/17 16:47:46;;;;;;;11.80;9.27;;;;;;;23.56;70.77;99120.50;4944870;28;20189;-74
2021/07/17 16:50:13;;;;;;;10.68;8.52;;;;;;;23.70;71.74;99123.13;4942517;28;20033;-72
2021/07/17 16:52:39;;;;;;;12.52;8.10;;;;;;;23.43;73.26;99124.91;4942952;29;20046;-73
2021/07/17 16:55:06;;;;;;;78.05;51.15;;;;;;;23.61;71.29;99123.72;4942693;28;20027;-72
2021/07/17 16:57:31;;;;;;;9.35;8.43;;;;;;;23.53;72.24;99120.72;4941561;29;20045;-76
2021/07/17 16:59:57;;;;;;;14.63;9.70;;;;;;;23.71;71.89;99119.53;4945565;29;20450;-76
2021/07/17 17:02:22;;;;;;;11.93;9.27;;;;;;;23.51;71.46;99130.56;4945336;28;20058;-76
2021/07/17 17:04:47;;;;;;;14.70;9.38;;;;;;;23.45;72.41;99123.00;4943766;28;20061;-76
2021/07/17 17:07:13;;;;;;;10.60;8.30;;;;;;;23.27;73.50;99125.91;4944655;28;20027;-76
2021/07/17 17:09:39;;;;;;;12.23;8.52;;;;;;;23.36;71.92;99127.13;4944724;28;20019;-74
2021/07/17 17:12:04;;;;;;;12.55;8.85;;;;;;;23.34;73.00;99126.34;4942039;28;20046;-71
2021/07/17 17:14:30;;;;;;;12.98;8.57;;;;;;;23.11;73.97;99130.47;4942707;29;20027;-73
2021/07/17 17:16:57;;;;;;;12.50;8.70;;;;;;;23.04;75.40;99123.88;4961797;28;21556;-72
2021/07/17 17:19:22;;;;;;;15.88;8.90;;;;;;;23.14;73.72;99124.13;4962041;28;20109;-73
2021/07/17 17:21:48;;;;;;;16.38;8.57;;;;;;;23.21;74.28;99121.03;4963578;28;20484;-74
2021/07/17 17:24:13;;;;;;;11.32;8.80;;;;;;;23.10;73.91;99128.75;4961575;28;20072;-73
2021/07/17 17:26:39;;;;;;;12.25;8.98;;;;;;;23.19;73.85;99128.19;4963047;28;20391;-75
2021/07/17 17:29:05;;;;;;;11.35;8.52;;;;;;;23.10;73.83;99131.41;4961185;28;20034;-78
2021/07/17 17:31:30;;;;;;;13.77;10.05;;;;;;;22.96;75.18;99119.06;4962052;28;20066;-80
2021/07/17 17:33:56;;;;;;;12.65;9.15;;;;;;;22.96;75.36;99123.50;4962589;28;20034;-79
2021/07/17 17:36:21;;;;;;;13.60;9.60;;;;;;;23.01;75.54;99119.63;4942448;28;20033;-83
2021/07/17 17:38:46;;;;;;;11.45;8.88;;;;;;;23.25;75.37;99127.78;4960545;28;20022;-79
2021/07/17 17:41:13;;;;;;;19.05;11.20;;;;;;;23.27;74.47;99119.78;4959246;28;20451;-80
2021/07/17 17:43:39;;;;;;;11.73;9.13;;;;;;;23.24;74.22;99120.81;4959704;28;20034;-80
2021/07/17 17:46:04;;;;;;;16.08;9.13;;;;;;;23.17;73.54;99116.03;4961520;28;20019;-78
2021/07/17 17:48:30;;;;;;;13.52;8.65;;;;;;;23.22;74.38;99113.94;4940761;28;20031;-78
2021/07/17 17:50:57;;;;;;;13.45;8.93;;;;;;;23.28;73.95;99111.72;4958216;28;20115;-78
2021/07/17 17:53:22;;;;;;;13.30;8.32;;;;;;;23.04;74.16;99113.31;4958737;28;20075;-72
2021/07/17 17:55:48;;;;;;;12.07;8.57;;;;;;;23.06;74.25;99111.41;4962135;28;20106;-72
2021/07/17 17:58:13;;;;;;;17.13;9.43;;;;;;;22.95;75.06;99113.88;4958429;28;20472;-73
2021/07/17 18:00:38;;;;;;;12.85;9.23;;;;;;;22.85;75.65;99118.88;4958075;28;20058;-73
2021/07/17 18:03:04;;;;;;;12.65;8.90;;;;;;;22.77;76.04;99116.72;4961403;28;20038;-73
2021/07/17 18:05:31;;;;;;;13.63;9.82;;;;;;;22.71;76.00;99111.81;4960206;28;20026;-72
2021/07/17 18:07:57;;;;;;;20.48;10.43;;;;;;;22.65;76.18;99112.19;4961958;28;20030;-72
2021/07/17 18:10:23;;;;;;;12.93;9.32;;;;;;;22.68;75.89;99112.00;4961953;28;20487;-75
2021/07/17 18:12:49;;;;;;;16.85;9.82;;;;;;;22.60;76.12;99114.28;4958623;28;20062;-73
2021/07/17 18:15:16;;;;;;;15.52;9.57;;;;;;;22.66;76.27;99119.16;4961214;28;20495;-74
2021/07/17 18:17:43;;;;;;;16.20;9.85;;;;;;;22.52;76.97;99116.53;4957916;28;20060;-77
2021/07/17 18:20:10;;;;;;;16.80;9.98;;;;;;;22.56;76.45;99113.59;4961606;28;20027;-76